Terrys Corners, NY

5:33 AM EST on January 22, 2017 (GMT -0500)
| | Change Station
Active Advisory: Small Craft Advisory

Elev -9999 ft 0.00 °N, 0.00 °E | Updated 3 minutes ago

Overcast
Overcast
°F
Feels Like °F
N
Wind Variable Wind from North
Gusts mph

Today
High -- | Low -- °F
--% Chance of Precip.
Yesterday
High -- | Low -- °F
Precip. -- in
Pressure 29.67 in
Visibility 0.8 miles
Clouds Mostly Cloudy 100 ft
Dew Point Not available.
Humidity Not available.
Rainfall --
Snow Depth Not available.
7:38 AM 5:13 PM
Waning Crescent, 27% visible
SPECI KBUF 221022Z 01004KT 3/4SM R23/1800V4000FT BR MIFG BKN001 03/03 A2967 RMK AO2 T00330028
Pressure 29.67 in
Visibility 0.8 miles
Clouds Mostly Cloudy 100 ft
Dew Point Not available.
Humidity Not available.
Rainfall --
Snow Depth Not available.
7:38 AM 5:13 PM
Waning Crescent, 27% visible
SPECI KBUF 221022Z 01004KT 3/4SM R23/1800V4000FT BR MIFG BKN001 03/03 A2967 RMK AO2 T00330028

Get Your Daily Forecast Email!

Thanks for signing up!

Be on the lookout for a verification email in your inbox.

You'll start receiving the daily forecast at 8 AM.

×

10-Day Weather Forecast

Almanac

Astronomy

Jan. 22, 2017 Rise Set
Actual Time
Civil Twilight
Nautical Twilight
Astronomical Twilight
Moon
Length of Visible Light
Length of Day
Tomorrow will be .
, % of the Moon is Illuminated

Today's Extremes

State Highs State Lows

Community

WunderPhotos

Upload Photos

1,962,540 photos uploaded!

WunderBlog® & News

Nearby

Air Quality

  Air Quality AQ Index Pollutant
Not available.

Snow Depth

Station Depth Elevation

Earthquake Activity

City Distance Mag. Time & Date
Minimum magnitude displayed is 2.5.

Coastal Water Temperatures

Place Temperature

Stations

Nearby Weather Stations

Station Location Temp. Windchill Dew Point Humidity Wind Precip. Elev Updated Type
                   

Watches & Warnings

Small Craft Advisory
Issued: 3:32 AM EST Jan. 22, 2017 – National Weather Service

... Small Craft Advisory in effect from 7 PM this evening to 1 PM
EST Tuesday...

The National Weather Service in Buffalo has issued a Small Craft
Advisory... which is in effect from 7 PM this evening to 1 PM EST
Tuesday.

* Winds... northeast 20 to 25 knots.

* Waves... 4 to 7 feet.

Precautionary/preparedness actions...

A Small Craft Advisory means that wind speeds of 18 to 33 knots
and/or waves averaging 4 feet or more are expected to produce
hazardous wave conditions to small craft. Inexperienced
mariners... especially those operating smaller vessels... should
avoid navigating in these conditions.



Church